Time;durP1;ratioP1;P1;durP2;ratioP2;P2;SDS_P1;SDS_P2;PMS_P1;PMS_P2;Temp;Humidity;BMP_temperature;BMP_pressure;BME280_temperature;BME280_humidity;BME280_pressure;Samples;Min_cycle;Max_cycle;Signal;HPM_P1;HPM_P2
2023/06/11 00:01:40;;;;;;;8.70;2.70;;;;;;;13.12;86.20;95188.08;106376;1279;22612;-75
2023/06/11 00:04:25;;;;;;;7.10;2.90;;;;;;;13.07;86.67;95190.88;106289;1279;24633;-74
2023/06/11 00:07:00;;;;;;;4.90;2.80;;;;;;;13.06;87.13;95192.69;106709;1279;22527;-74
2023/06/11 00:09:29;;;;;;;10.40;3.30;;;;;;;12.99;87.26;95192.40;106634;1279;22645;-75
2023/06/11 00:11:57;;;;;;;8.50;3.70;;;;;;;12.95;87.45;95190.42;106465;1279;24895;-74
2023/06/11 00:14:26;;;;;;;5.20;3.30;;;;;;;12.86;87.32;95188.43;106544;1276;25271;-74
2023/06/11 00:16:56;;;;;;;7.00;3.60;;;;;;;12.84;87.87;95189.54;106615;1276;23043;-74
2023/06/11 00:19:28;;;;;;;4.80;3.50;;;;;;;12.85;87.67;95189.19;106593;1276;22531;-74
2023/06/11 00:21:58;;;;;;;4.60;3.50;;;;;;;12.78;87.07;95188.16;106554;1276;24248;-74
2023/06/11 00:24:27;;;;;;;3.60;3.10;;;;;;;12.74;87.13;95193.60;106519;1276;22640;-74
2023/06/11 00:26:55;;;;;;;6.30;3.50;;;;;;;12.75;86.90;95187.55;106591;1276;25418;-75
2023/06/11 00:29:23;;;;;;;7.80;3.40;;;;;;;12.76;86.81;95191.22;106511;1276;22530;-74
2023/06/11 00:31:52;;;;;;;4.10;3.00;;;;;;;12.69;86.95;95194.81;106553;1276;23042;-75
2023/06/11 00:34:20;;;;;;;4.20;3.40;;;;;;;12.55;86.66;95192.45;106793;1276;22543;-75
2023/06/11 00:36:48;;;;;;;6.00;3.20;;;;;;;12.45;87.41;95197.73;106601;1276;22643;-75
2023/06/11 00:39:17;;;;;;;4.30;3.20;;;;;;;12.41;87.22;95193.10;106565;1276;22638;-75
2023/06/11 00:41:48;;;;;;;5.20;3.40;;;;;;;12.40;87.50;95194.20;106568;1276;22598;-74
2023/06/11 00:44:21;;;;;;;7.80;3.30;;;;;;;12.38;88.04;95197.59;106543;1276;22531;-74
2023/06/11 00:46:51;;;;;;;;;;;;;;;12.40;89.12;95198.05;106609;1276;25369;-75
2023/06/11 00:49:21;;;;;;;5.50;2.70;;;;;;;12.43;89.20;95196.75;106606;1276;25303;-75
2023/06/11 00:51:50;;;;;;;8.10;3.10;;;;;;;12.44;88.53;95192.29;106556;1276;24224;-73
2023/06/11 00:54:18;;;;;;;6.00;3.10;;;;;;;12.46;88.21;95186.23;106570;1275;22654;-75
2023/06/11 00:56:46;;;;;;;8.60;3.20;;;;;;;12.47;88.39;95184.60;106597;1276;22513;-75
2023/06/11 00:59:19;;;;;;;4.10;2.60;;;;;;;12.48;89.47;95186.70;106562;1276;22539;-75
2023/06/11 01:01:56;;;;;;;;;;;;;;;12.53;89.03;95183.33;106677;1275;22532;-75
2023/06/11 01:04:29;;;;;;;3.70;2.90;;;;;;;12.52;88.88;95189.00;106709;1276;22518;-75
2023/06/11 01:07:00;;;;;;;4.90;2.90;;;;;;;12.60;88.81;95186.66;106743;1276;22730;-75
2023/06/11 01:09:29;;;;;;;7.40;2.90;;;;;;;12.56;87.88;95184.67;106554;1276;24201;-75
2023/06/11 01:11:58;;;;;;;5.10;3.10;;;;;;;12.53;87.81;95190.23;106556;1275;22574;-75
2023/06/11 01:14:26;;;;;;;5.20;2.90;;;;;;;12.50;87.64;95193.16;106680;1276;22527;-75
2023/06/11 01:17:04;;;;;;;7.80;2.90;;;;;;;12.45;87.90;95196.48;106980;1275;22800;-75
2023/06/11 01:19:52;;;;;;;3.50;2.60;;;;;;;12.48;87.81;95196.40;106693;1276;24048;-75
2023/06/11 01:22:31;;;;;;;5.30;2.60;;;;;;;12.43;87.32;95201.85;106768;1276;25608;-75
2023/06/11 01:25:30;;;;;;;6.30;2.80;;;;;;;12.32;87.03;95203.25;106760;1275;25467;-75
2023/06/11 01:28:12;;;;;;;6.60;2.70;;;;;;;12.31;87.36;95198.01;106820;1264;22632;-75
2023/06/11 01:30:45;;;;;;;5.50;3.00;;;;;;;12.33;87.56;95200.94;106616;1276;25577;-74
2023/06/11 01:33:14;;;;;;;5.60;2.90;;;;;;;12.32;87.47;95200.95;106605;1275;22546;-74
2023/06/11 01:35:48;;;;;;;6.30;3.40;;;;;;;12.34;87.25;95203.54;106789;1275;22517;-74
2023/06/11 01:38:21;;;;;;;6.20;2.60;;;;;;;12.34;87.34;95202.48;106731;1275;24305;-74
2023/06/11 01:40:50;;;;;;;;;;;;;;;12.31;86.93;95202.04;106633;1275;22494;-74
2023/06/11 01:43:19;;;;;;;8.80;2.90;;;;;;;12.27;87.54;95206.41;106671;1276;22609;-75
2023/06/11 01:45:47;;;;;;;4.70;3.30;;;;;;;12.19;87.17;95209.30;106555;1275;22640;-75
2023/06/11 01:48:15;;;;;;;4.50;2.80;;;;;;;12.11;87.33;95203.73;106841;1276;22528;-75
2023/06/11 01:50:44;;;;;;;3.80;2.80;;;;;;;12.08;87.79;95202.59;106810;1276;22639;-75
2023/06/11 01:53:12;;;;;;;2.90;2.50;;;;;;;12.02;87.93;95202.77;106612;1276;24212;-75
2023/06/11 01:55:42;;;;;;;4.10;3.10;;;;;;;12.02;87.91;95204.89;106587;1276;22533;-75
2023/06/11 01:58:12;;;;;;;4.90;2.70;;;;;;;12.04;88.16;95204.63;106579;1276;24364;-75
2023/06/11 02:00:40;;;;;;;5.30;2.90;;;;;;;12.01;87.49;95208.09;106813;1276;24212;-75
2023/06/11 02:03:08;;;;;;;4.30;2.80;;;;;;;12.00;87.69;95210.59;106739;1276;26510;-75
2023/06/11 02:05:37;;;;;;;4.80;2.90;;;;;;;12.03;88.06;95208.39;106897;1276;24209;-75
2023/06/11 02:08:05;;;;;;;6.90;3.00;;;;;;;12.03;88.46;95212.08;106613;1275;25661;-74
2023/06/11 02:10:33;;;;;;;3.10;2.70;;;;;;;12.09;88.91;95215.60;106582;1276;25441;-75
2023/06/11 02:13:02;;;;;;;4.00;2.70;;;;;;;12.14;88.27;95215.10;106594;1276;22521;-75
2023/06/11 02:15:30;;;;;;;3.60;2.80;;;;;;;12.12;87.86;95218.33;106539;1276;22520;-75
2023/06/11 02:17:59;;;;;;;5.80;2.70;;;;;;;12.10;87.39;95222.63;106599;1276;25266;-75
2023/06/11 02:20:27;;;;;;;3.70;2.70;;;;;;;12.07;87.73;95221.30;106386;1276;25218;-75
2023/06/11 02:22:56;;;;;;;6.90;2.80;;;;;;;12.03;87.27;95222.48;106545;1267;22640;-75
2023/06/11 02:25:24;;;;;;;7.20;3.10;;;;;;;11.94;87.46;95216.94;106546;1276;22637;-75
2023/06/11 02:27:53;;;;;;;7.40;3.10;;;;;;;11.90;87.50;95218.83;106568;1276;22521;-75
2023/06/11 02:30:22;;;;;;;4.10;2.70;;;;;;;11.87;87.85;95216.23;106704;1276;25403;-75
2023/06/11 02:32:50;;;;;;;3.90;2.80;;;;;;;11.82;88.22;95220.07;106592;1276;23889;-75
2023/06/11 02:35:18;;;;;;;3.80;3.00;;;;;;;11.78;87.95;95220.91;106572;1276;23885;-75
2023/06/11 02:37:46;;;;;;;5.60;3.20;;;;;;;11.71;88.34;95222.68;106629;1276;23155;-76
2023/06/11 02:40:15;;;;;;;4.20;3.20;;;;;;;11.72;88.13;95225.48;106574;1276;22540;-75
2023/06/11 02:42:44;;;;;;;4.50;2.90;;;;;;;11.75;88.50;95226.11;106610;1276;24253;-75
2023/06/11 02:45:12;;;;;;;3.70;3.10;;;;;;;11.77;88.34;95224.81;106707;1276;24228;-76
2023/06/11 02:47:41;;;;;;;5.30;3.40;;;;;;;11.79;88.56;95228.80;106664;1276;22526;-75
2023/06/11 02:50:10;;;;;;;4.40;3.10;;;;;;;11.81;88.56;95226.10;106825;1275;23973;-75
2023/06/11 02:52:38;;;;;;;3.90;3.00;;;;;;;11.79;87.83;95223.53;106829;1275;25493;-75
2023/06/11 02:55:07;;;;;;;7.10;3.50;;;;;;;11.72;87.34;95221.96;106644;1275;22522;-75
2023/06/11 02:57:36;;;;;;;4.60;2.80;;;;;;;11.65;87.52;95218.27;106608;1275;25320;-75
2023/06/11 03:00:06;;;;;;;3.20;2.80;;;;;;;11.57;87.30;95215.88;106721;1275;25268;-75
2023/06/11 03:02:34;;;;;;;3.20;2.80;;;;;;;11.49;87.25;95219.44;106600;1275;24208;-75
2023/06/11 03:05:03;;;;;;;5.70;3.00;;;;;;;11.49;87.63;95219.97;106651;1275;25227;-75
2023/06/11 03:07:32;;;;;;;6.10;3.40;;;;;;;11.49;88.10;95223.84;106736;1275;22785;-75
2023/06/11 03:10:01;;;;;;;4.40;3.30;;;;;;;11.49;89.93;95226.15;106729;1275;22546;-75
2023/06/11 03:12:29;;;;;;;5.00;2.70;;;;;;;11.48;89.54;95229.15;106791;1275;25387;-75
2023/06/11 03:14:57;;;;;;;3.60;3.00;;;;;;;11.50;89.99;95230.49;106792;1275;25278;-75
2023/06/11 03:17:26;;;;;;;3.60;3.20;;;;;;;11.56;89.46;95232.09;106552;1275;22645;-75
2023/06/11 03:19:54;;;;;;;7.50;2.90;;;;;;;11.66;89.69;95228.45;106596;1275;24044;-75
2023/06/11 03:22:23;;;;;;;9.00;3.40;;;;;;;11.80;90.37;95230.36;106670;1275;22661;-74
2023/06/11 03:24:51;;;;;;;6.80;2.90;;;;;;;11.87;89.70;95228.59;106553;1275;25617;-75
2023/06/11 03:27:30;;;;;;;5.50;3.30;;;;;;;11.92;89.99;95228.81;106583;1275;22522;-74
2023/06/11 03:29:59;;;;;;;3.70;3.00;;;;;;;11.99;89.95;95230.70;106678;1275;26613;-75
2023/06/11 03:32:27;;;;;;;6.00;3.60;;;;;;;12.01;89.12;95231.02;106661;1275;22541;-75
2023/06/11 03:34:56;;;;;;;5.50;3.00;;;;;;;12.09;89.78;95224.77;106637;1275;22510;-75
2023/06/11 03:37:24;;;;;;;8.90;3.20;;;;;;;12.21;89.52;95223.70;106535;1275;23900;-74
2023/06/11 03:39:56;;;;;;;5.30;3.60;;;;;;;12.24;89.30;95223.77;106563;1275;25300;-74
2023/06/11 03:42:24;;;;;;;4.20;3.70;;;;;;;12.31;89.31;95225.33;106642;1270;22766;-75
2023/06/11 03:44:53;;;;;;;4.10;3.00;;;;;;;12.36;89.36;95224.30;106768;1275;22550;-74
2023/06/11 03:47:22;;;;;;;9.70;6.60;;;;;;;12.43;89.44;95230.80;106618;1275;24043;-75
2023/06/11 03:49:51;;;;;;;5.50;3.30;;;;;;;12.51;89.65;95225.74;106549;1275;24262;-74
2023/06/11 03:52:20;;;;;;;6.20;4.10;;;;;;;12.62;89.49;95224.86;106627;1275;22523;-74
2023/06/11 03:54:48;;;;;;;5.40;3.50;;;;;;;12.72;89.60;95222.41;106576;1275;22522;-75
2023/06/11 03:57:18;;;;;;;5.90;3.70;;;;;;;12.90;90.01;95223.24;106564;1275;22530;-76
2023/06/11 03:59:47;;;;;;;4.40;3.10;;;;;;;13.01;89.01;95217.21;106837;1275;22650;-76
2023/06/11 04:02:15;;;;;;;6.30;3.60;;;;;;;13.08;88.93;95222.28;106701;1275;22516;-76
2023/06/11 04:04:44;;;;;;;4.30;3.40;;;;;;;13.19;88.84;95220.67;106797;1275;22517;-76
2023/06/11 04:07:13;;;;;;;7.20;3.30;;;;;;;13.20;88.15;95211.98;106616;1275;22637;-76
2023/06/11 04:09:41;;;;;;;5.80;3.60;;;;;;;13.29;88.76;95213.45;106931;1275;24209;-76
2023/06/11 04:12:10;;;;;;;7.90;3.60;;;;;;;13.36;88.82;95217.60;106696;1274;22527;-76
2023/06/11 04:14:39;;;;;;;4.50;3.20;;;;;;;13.41;88.35;95216.73;106628;1275;25384;-76
2023/06/11 04:17:08;;;;;;;4.30;3.50;;;;;;;13.48;88.39;95212.45;106492;1275;24399;-76
2023/06/11 04:19:37;;;;;;;4.60;3.30;;;;;;;13.59;88.18;95217.89;106582;1261;24358;-76
2023/06/11 04:22:06;;;;;;;4.40;3.60;;;;;;;13.67;87.92;95212.80;106614;1275;22514;-76
2023/06/11 04:24:35;;;;;;;4.80;3.90;;;;;;;13.75;87.67;95208.11;106589;1275;22558;-77
2023/06/11 04:27:06;;;;;;;5.60;4.00;;;;;;;13.76;87.37;95211.25;106556;1275;25448;-76
2023/06/11 04:29:36;;;;;;;4.60;3.90;;;;;;;13.85;87.57;95206.81;106595;1268;22787;-77
2023/06/11 04:32:07;;;;;;;6.40;4.30;;;;;;;13.93;87.76;95206.17;106643;1275;25400;-76
2023/06/11 04:34:37;;;;;;;6.20;4.30;;;;;;;13.98;87.75;95201.05;106642;1269;24200;-76
2023/06/11 04:37:09;;;;;;;5.90;4.00;;;;;;;14.01;87.92;95201.45;106586;1275;22532;-75
2023/06/11 04:39:40;;;;;;;5.40;4.00;;;;;;;14.05;88.08;95204.30;106551;1275;22599;-76
2023/06/11 04:42:08;;;;;;;6.50;4.60;;;;;;;14.04;88.09;95202.21;106575;1276;22521;-76
2023/06/11 04:44:37;;;;;;;6.70;3.80;;;;;;;14.11;88.67;95199.84;106574;1275;25522;-77
2023/06/11 04:47:06;;;;;;;6.00;4.60;;;;;;;14.19;88.55;95199.52;106619;1275;25504;-76
2023/06/11 04:49:40;;;;;;;6.90;4.60;;;;;;;14.31;88.87;95202.24;106599;1275;22638;-77
2023/06/11 04:52:09;;;;;;;5.10;4.30;;;;;;;14.40;88.66;95201.89;106591;1275;25357;-75
2023/06/11 04:54:41;;;;;;;5.30;4.60;;;;;;;14.47;88.55;95203.20;106633;1275;26748;-75
2023/06/11 04:57:13;;;;;;;5.20;4.70;;;;;;;14.52;88.32;95206.19;106579;1275;24420;-75
2023/06/11 04:59:41;;;;;;;10.10;4.60;;;;;;;14.56;88.34;95209.21;106728;1275;22632;-75
2023/06/11 05:02:10;;;;;;;5.40;4.10;;;;;;;14.64;88.13;95208.17;106791;1275;22596;-76
2023/06/11 05:04:38;;;;;;;4.90;4.40;;;;;;;14.71;87.71;95208.44;106941;1276;22525;-76
2023/06/11 05:07:07;;;;;;;10.10;4.60;;;;;;;14.84;88.04;95210.59;106639;1275;25345;-75
2023/06/11 05:09:36;;;;;;;7.30;4.20;;;;;;;14.98;88.05;95210.36;106618;1276;22516;-75
2023/06/11 05:12:05;;;;;;;7.50;4.00;;;;;;;15.10;87.85;95209.31;106597;1275;22520;-75
2023/06/11 05:14:35;;;;;;;5.90;4.00;;;;;;;15.18;87.49;95208.98;106630;1276;22514;-75
2023/06/11 05:17:05;;;;;;;5.10;4.00;;;;;;;15.28;87.57;95214.91;106582;1275;24273;-75
2023/06/11 05:19:34;;;;;;;5.80;3.60;;;;;;;15.46;87.97;95209.02;106583;1275;22657;-76
2023/06/11 05:22:05;;;;;;;4.70;4.10;;;;;;;15.64;87.57;95206.25;106576;1275;24206;-76
2023/06/11 05:24:33;;;;;;;5.90;4.10;;;;;;;15.75;86.48;95210.41;106525;1276;25336;-76
2023/06/11 05:27:04;;;;;;;5.90;3.80;;;;;;;15.89;86.58;95205.52;106631;1276;24215;-75
2023/06/11 05:29:33;;;;;;;4.80;3.80;;;;;;;16.05;86.50;95206.55;106547;1276;25221;-75
2023/06/11 05:32:02;;;;;;;5.70;3.70;;;;;;;16.23;85.90;95210.87;106624;1275;23291;-75
2023/06/11 05:34:33;;;;;;;6.70;4.00;;;;;;;16.37;85.50;95209.86;106640;1276;25271;-76
2023/06/11 05:37:06;;;;;;;6.10;4.70;;;;;;;16.53;84.52;95209.48;106564;1275;22625;-75
2023/06/11 05:39:35;;;;;;;6.40;4.70;;;;;;;16.65;84.67;95209.23;106601;1276;22761;-75
2023/06/11 05:42:06;;;;;;;5.60;4.80;;;;;;;16.78;84.24;95209.86;106641;1276;22527;-76
2023/06/11 05:44:35;;;;;;;7.80;5.40;;;;;;;16.88;83.61;95206.55;106568;1276;24902;-76
2023/06/11 05:47:04;;;;;;;6.50;5.00;;;;;;;17.03;84.11;95206.30;106846;1275;22563;-76
2023/06/11 05:49:32;;;;;;;6.20;4.40;;;;;;;17.21;83.82;95208.27;106815;1276;22521;-76
2023/06/11 05:52:01;;;;;;;10.30;4.50;;;;;;;17.37;82.86;95203.73;106567;1275;22533;-75
2023/06/11 05:54:29;;;;;;;8.00;4.70;;;;;;;17.45;81.99;95200.60;106660;1276;22514;-74
2023/06/11 05:56:58;;;;;;;5.90;4.60;;;;;;;17.57;82.05;95195.34;106957;1275;22528;-75
2023/06/11 05:59:26;;;;;;;5.30;4.30;;;;;;;17.68;81.77;95193.73;106772;1276;22523;-75
2023/06/11 06:01:54;;;;;;;8.40;4.90;;;;;;;17.76;81.25;95196.86;106631;1275;24261;-75
2023/06/11 06:04:23;;;;;;;6.10;4.40;;;;;;;17.84;80.96;95193.25;106577;1275;22540;-71
2023/06/11 06:06:51;;;;;;;4.80;4.30;;;;;;;17.97;80.77;95195.93;106577;1275;25279;-75
2023/06/11 06:09:19;;;;;;;7.20;5.00;;;;;;;18.06;80.56;95191.89;106597;1276;23915;-67
2023/06/11 06:11:48;;;;;;;5.90;5.30;;;;;;;18.19;80.40;95196.53;106647;1275;22517;-75
2023/06/11 06:14:17;;;;;;;8.50;5.40;;;;;;;18.31;80.28;95198.70;106865;1275;24214;-75
2023/06/11 06:16:45;;;;;;;4.80;4.20;;;;;;;18.42;78.95;95194.38;106541;1275;24244;-75
2023/06/11 06:19:16;;;;;;;4.90;4.40;;;;;;;18.51;78.28;95194.23;106587;1275;22523;-75
2023/06/11 06:21:46;;;;;;;6.80;4.70;;;;;;;18.59;78.28;95189.32;106602;1275;22526;-75
2023/06/11 06:24:15;;;;;;;4.90;4.00;;;;;;;18.68;77.34;95186.17;106622;1275;25218;-75
2023/06/11 06:26:44;;;;;;;7.30;4.10;;;;;;;18.72;75.24;95180.58;106574;1275;22527;-76
2023/06/11 06:29:13;;;;;;;4.50;4.00;;;;;;;18.80;76.46;95183.17;106675;1275;22526;-75
2023/06/11 06:31:41;;;;;;;5.20;3.90;;;;;;;18.90;76.59;95181.52;106583;1275;22520;-76
2023/06/11 06:34:09;;;;;;;8.80;4.50;;;;;;;18.96;76.52;95183.71;106591;1275;25944;-75
2023/06/11 06:36:38;;;;;;;5.00;4.50;;;;;;;18.96;76.48;95182.60;106598;1275;25320;-76
2023/06/11 06:39:07;;;;;;;6.80;5.20;;;;;;;19.00;76.60;95182.90;106594;1275;23745;-76
2023/06/11 06:41:35;;;;;;;5.10;4.60;;;;;;;19.12;76.75;95179.89;106529;1275;23905;-75
2023/06/11 06:44:08;;;;;;;5.00;4.30;;;;;;;19.25;76.79;95183.08;106578;1275;25263;-75
2023/06/11 06:46:36;;;;;;;8.40;4.60;;;;;;;19.36;76.66;95176.70;106536;1275;25491;-74
2023/06/11 06:49:05;;;;;;;6.80;4.80;;;;;;;19.51;76.11;95174.75;106805;1275;22527;-75
2023/06/11 06:51:33;;;;;;;4.30;3.80;;;;;;;19.62;74.49;95173.69;106566;1275;23886;-75
2023/06/11 06:54:03;;;;;;;5.20;4.00;;;;;;;19.74;74.80;95172.48;106988;1275;25494;-76
2023/06/11 06:56:31;;;;;;;7.20;4.20;;;;;;;19.87;74.57;95173.42;106677;1275;23879;-76
2023/06/11 06:58:59;;;;;;;6.70;4.40;;;;;;;19.96;71.80;95173.46;106544;1275;22616;-76
2023/06/11 07:01:28;;;;;;;9.50;4.30;;;;;;;20.00;70.67;95171.77;106600;1275;25200;-75
2023/06/11 07:03:57;;;;;;;6.10;4.30;;;;;;;20.07;71.12;95174.68;106674;1275;22577;-75
2023/06/11 07:06:25;;;;;;;4.80;4.20;;;;;;;20.20;71.08;95174.99;106575;1267;22546;-75
2023/06/11 07:08:54;;;;;;;7.30;4.00;;;;;;;20.30;70.64;95176.46;106557;1275;22524;-75
2023/06/11 07:11:23;;;;;;;6.90;5.00;;;;;;;20.37;69.03;95174.24;106576;1275;24212;-75
2023/06/11 07:13:51;;;;;;;6.60;4.30;;;;;;;20.43;68.64;95175.12;106728;1275;22531;-75
2023/06/11 07:16:19;;;;;;;5.10;4.10;;;;;;;20.57;68.91;95172.82;106747;1275;26500;-76
2023/06/11 07:18:52;;;;;;;4.80;4.00;;;;;;;20.68;68.72;95175.48;106603;1275;22530;-76
2023/06/11 07:21:20;;;;;;;7.50;3.90;;;;;;;20.84;70.04;95171.63;106563;1275;22832;-76
2023/06/11 07:23:49;;;;;;;6.50;4.00;;;;;;;21.01;70.74;95172.46;106699;1264;22521;-75
2023/06/11 07:26:18;;;;;;;5.80;3.50;;;;;;;21.15;70.46;95173.49;106652;1275;25403;-75
2023/06/11 07:28:47;;;;;;;6.40;4.10;;;;;;;21.22;70.03;95174.76;106582;1275;24364;-75
2023/06/11 07:31:15;;;;;;;5.40;4.10;;;;;;;21.33;70.23;95170.48;106683;1275;24182;-75
2023/06/11 07:33:44;;;;;;;5.90;4.00;;;;;;;21.43;70.10;95169.67;106641;1275;22516;-75
2023/06/11 07:36:12;;;;;;;6.70;4.10;;;;;;;21.49;70.10;95169.38;106641;1253;25543;-75
2023/06/11 07:38:42;;;;;;;3.90;3.60;;;;;;;21.59;69.95;95171.78;106684;1275;25374;-75
2023/06/11 07:41:13;;;;;;;5.20;3.70;;;;;;;21.66;68.54;95167.73;106495;1275;23884;-74
2023/06/11 07:43:41;;;;;;;4.00;3.50;;;;;;;21.75;69.47;95173.52;106581;1275;24188;-75
2023/06/11 07:46:11;;;;;;;3.70;3.20;;;;;;;21.82;68.35;95175.91;106602;1275;22518;-75
2023/06/11 07:48:41;;;;;;;4.90;3.10;;;;;;;21.91;69.12;95174.52;106588;1275;22653;-75
2023/06/11 07:51:11;;;;;;;4.70;3.10;;;;;;;22.05;67.65;95171.41;106619;1275;24201;-75
2023/06/11 07:53:40;;;;;;;4.60;3.30;;;;;;;22.17;67.05;95171.34;106551;1275;22531;-75
2023/06/11 07:56:09;;;;;;;4.70;3.30;;;;;;;22.26;67.16;95171.43;106632;1275;24203;-75
2023/06/11 07:58:37;;;;;;;4.20;3.50;;;;;;;22.38;66.56;95166.75;106596;1275;25218;-74
2023/06/11 08:01:05;;;;;;;4.40;3.50;;;;;;;22.44;65.77;95171.75;106482;1275;24251;-75
2023/06/11 08:03:33;;;;;;;4.10;3.30;;;;;;;22.50;66.29;95170.92;106572;1275;22516;-75
2023/06/11 08:06:02;;;;;;;4.20;3.40;;;;;;;22.57;66.02;95166.27;106579;1275;24248;-75
2023/06/11 08:08:30;;;;;;;6.00;3.50;;;;;;;22.61;65.69;95170.65;106597;1275;25400;-75
2023/06/11 08:10:58;;;;;;;4.20;3.40;;;;;;;22.67;65.94;95169.86;106551;1275;24338;-75
2023/06/11 08:13:27;;;;;;;4.50;3.50;;;;;;;22.75;64.97;95170.88;106604;1274;25385;-75
2023/06/11 08:15:55;;;;;;;5.50;3.80;;;;;;;22.80;65.69;95172.29;106618;1275;22531;-75
2023/06/11 08:18:23;;;;;;;5.20;3.40;;;;;;;22.91;65.70;95174.70;106570;1275;25481;-75
2023/06/11 08:20:52;;;;;;;6.10;3.80;;;;;;;22.96;63.66;95175.66;106558;1275;23156;-75
2023/06/11 08:23:20;;;;;;;14.70;3.80;;;;;;;22.97;62.79;95180.44;106523;1275;22531;-75
2023/06/11 08:25:49;;;;;;;6.30;3.80;;;;;;;22.98;62.51;95180.39;106648;1275;25240;-75
2023/06/11 08:28:17;;;;;;;4.10;3.40;;;;;;;23.02;62.60;95182.55;106577;1275;24327;-75
2023/06/11 08:30:45;;;;;;;5.70;3.20;;;;;;;23.11;62.72;95182.83;106547;1275;25405;-75
2023/06/11 08:33:14;;;;;;;6.40;3.90;;;;;;;23.22;63.07;95179.81;106563;1275;23889;-74
2023/06/11 08:35:43;;;;;;;4.90;4.00;;;;;;;23.30;62.45;95180.64;106638;1275;25487;-75
2023/06/11 08:38:11;;;;;;;7.30;3.80;;;;;;;23.33;63.62;95177.02;106567;1275;24281;-75
2023/06/11 08:40:41;;;;;;;4.10;3.70;;;;;;;23.45;63.58;95179.70;106614;1275;22531;-75
2023/06/11 08:43:10;;;;;;;4.10;3.80;;;;;;;23.44;61.47;95179.23;106657;1275;22521;-75
2023/06/11 08:45:38;;;;;;;6.20;3.90;;;;;;;23.45;62.33;95180.56;106583;1275;22527;-75
2023/06/11 08:48:09;;;;;;;7.80;4.00;;;;;;;23.54;62.12;95178.13;106652;1275;22528;-75
2023/06/11 08:50:37;;;;;;;5.70;3.40;;;;;;;23.60;60.47;95173.56;106621;1275;23876;-76
2023/06/11 08:53:07;;;;;;;4.90;3.40;;;;;;;23.67;61.36;95169.77;106551;1275;22679;-75
2023/06/11 08:55:35;;;;;;;5.40;3.40;;;;;;;23.85;62.09;95166.06;106646;1275;24356;-75
2023/06/11 08:58:05;;;;;;;4.70;3.10;;;;;;;24.02;60.92;95166.39;106583;1275;25335;-75
2023/06/11 09:00:38;;;;;;;6.30;3.90;;;;;;;24.13;60.38;95167.64;106600;1275;22520;-75
2023/06/11 09:03:08;;;;;;;6.80;3.40;;;;;;;24.24;60.49;95163.68;106591;1268;22531;-76
2023/06/11 09:05:37;;;;;;;6.30;3.60;;;;;;;24.38;59.42;95160.62;106612;1275;24376;-73
2023/06/11 09:08:07;;;;;;;4.30;3.40;;;;;;;24.49;59.11;95162.44;106632;1275;22516;-73
2023/06/11 09:10:51;;;;;;;5.60;3.70;;;;;;;24.57;58.64;95162.33;106580;1275;22549;-73
2023/06/11 09:13:25;;;;;;;3.80;3.20;;;;;;;24.69;57.16;95167.18;106611;1275;22694;-73
2023/06/11 09:15:57;;;;;;;4.70;3.20;;;;;;;24.69;55.91;95162.61;106595;1275;24183;-73
2023/06/11 09:18:27;;;;;;;4.30;3.40;;;;;;;24.86;55.76;95161.25;106566;1275;23151;-73
2023/06/11 09:20:57;;;;;;;3.90;3.50;;;;;;;24.94;54.80;95166.17;106593;1275;25462;-72
2023/06/11 09:23:34;;;;;;;3.70;3.30;;;;;;;24.95;54.69;95170.92;106621;1275;25331;-73
2023/06/11 09:26:02;;;;;;;7.40;3.30;;;;;;;24.97;54.38;95172.07;106577;1275;22731;-73
2023/06/11 09:28:33;;;;;;;6.60;3.80;;;;;;;25.00;54.15;95174.46;106688;1275;25420;-74
2023/06/11 09:31:03;;;;;;;5.50;3.70;;;;;;;25.08;54.39;95169.17;106669;1275;24474;-74
2023/06/11 09:33:32;;;;;;;4.20;3.60;;;;;;;25.14;54.35;95166.17;106664;1275;22533;-74
2023/06/11 09:36:01;;;;;;;4.40;3.30;;;;;;;24.97;52.93;95168.13;106575;1275;22545;-73
2023/06/11 09:38:36;;;;;;;4.80;3.50;;;;;;;24.70;53.29;95170.50;106683;1275;22519;-73
2023/06/11 09:41:08;;;;;;;5.00;3.80;;;;;;;24.41;53.63;95171.54;106643;1275;22524;-73
2023/06/11 09:43:36;;;;;;;7.10;3.90;;;;;;;24.12;54.48;95174.56;106932;1275;25265;-73
2023/06/11 09:46:06;;;;;;;5.00;3.50;;;;;;;23.92;55.57;95177.03;106596;1275;22647;-73
2023/06/11 09:48:34;;;;;;;6.70;4.00;;;;;;;23.76;55.15;95184.35;106768;1275;25389;-73
2023/06/11 09:51:05;;;;;;;4.90;3.60;;;;;;;23.53;55.86;95187.73;106600;1275;24229;-73
2023/06/11 09:53:34;;;;;;;4.30;3.60;;;;;;;23.25;55.66;95192.33;106565;1275;24249;-73
2023/06/11 09:56:05;;;;;;;5.70;3.80;;;;;;;22.94;57.31;95197.66;106562;1275;22633;-73
2023/06/11 09:58:39;;;;;;;6.50;3.90;;;;;;;22.64;59.08;95205.44;106582;1275;22520;-73
2023/06/11 10:01:08;;;;;;;8.50;4.80;;;;;;;22.42;59.40;95214.85;106848;1275;25390;-73
2023/06/11 10:03:36;;;;;;;5.50;4.90;;;;;;;22.24;59.88;95219.73;106816;1276;22530;-73
2023/06/11 10:06:09;;;;;;;6.10;4.30;;;;;;;22.08;60.40;95222.84;106604;1275;22523;-73
2023/06/11 10:08:39;;;;;;;7.30;4.40;;;;;;;21.92;60.94;95221.98;106608;1275;25400;-73
2023/06/11 10:11:09;;;;;;;6.30;4.20;;;;;;;21.76;61.52;95219.08;106554;1269;25589;-73
2023/06/11 10:13:38;;;;;;;7.60;4.50;;;;;;;21.62;62.12;95219.02;106657;1275;22572;-73
2023/06/11 10:16:09;;;;;;;9.80;4.70;;;;;;;21.49;62.74;95225.03;106513;1276;22523;-73
2023/06/11 10:18:38;;;;;;;5.70;4.40;;;;;;;21.33;63.77;95222.67;106185;1275;582846;-72
2023/06/11 10:21:06;;;;;;;11.00;8.50;;;;;;;21.18;64.71;95228.15;106638;1275;22640;-72
2023/06/11 10:23:40;;;;;;;6.40;4.50;;;;;;;21.03;65.24;95230.06;106572;1275;25151;-73
2023/06/11 10:26:09;;;;;;;9.10;4.30;;;;;;;20.90;65.37;95230.17;106610;1275;25309;-72
2023/06/11 10:28:44;;;;;;;7.20;4.30;;;;;;;20.77;66.55;95231.36;106612;1275;22526;-73
2023/06/11 10:31:35;;;;;;;5.50;4.80;;;;;;;20.63;67.16;95229.80;106775;1275;24669;-72
2023/06/11 10:34:04;;;;;;;6.20;4.60;;;;;;;20.46;68.77;95230.66;106831;1275;25234;-72
2023/06/11 10:36:40;;;;;;;8.50;4.70;;;;;;;20.35;69.43;95227.95;106713;1275;22569;-72
2023/06/11 10:39:20;;;;;;;6.60;4.10;;;;;;;20.28;69.48;95230.16;106737;1275;23146;-73
2023/06/11 10:42:00;;;;;;;8.40;4.10;;;;;;;20.21;69.94;95233.63;106557;1252;22520;-73
2023/06/11 10:44:32;;;;;;;4.70;3.80;;;;;;;20.09;71.84;95238.89;106862;1275;26491;-73
2023/06/11 10:47:00;;;;;;;7.20;3.90;;;;;;;19.93;71.69;95246.29;106537;1275;25397;-73
2023/06/11 10:49:29;;;;;;;4.90;3.40;;;;;;;19.74;70.27;95245.80;106656;1275;22533;-73
2023/06/11 10:52:00;;;;;;;3.70;3.10;;;;;;;19.60;68.49;95245.94;106684;1275;24231;-73
2023/06/11 10:54:33;;;;;;;5.70;2.90;;;;;;;19.52;66.33;95243.34;106840;1275;22650;-73
2023/06/11 10:57:02;;;;;;;4.30;2.10;;;;;;;19.46;64.79;95236.36;106649;1275;24242;-73
2023/06/11 10:59:34;;;;;;;4.20;2.00;;;;;;;19.41;63.00;95238.64;106550;1275;25277;-73
2023/06/11 11:02:03;;;;;;;3.70;2.10;;;;;;;19.34;61.35;95232.28;106627;1275;22657;-73
2023/06/11 11:04:31;;;;;;;4.80;2.10;;;;;;;19.26;61.74;95230.61;106424;1275;23151;-74
2023/06/11 11:07:08;;;;;;;5.40;2.00;;;;;;;19.18;62.10;95236.39;106586;1275;22792;-73
2023/06/11 11:09:37;;;;;;;2.90;2.00;;;;;;;19.10;62.38;95241.55;106600;1275;22535;-74
2023/06/11 11:12:06;;;;;;;5.70;2.20;;;;;;;18.92;57.55;95243.10;106547;1275;24201;-74
2023/06/11 11:14:34;;;;;;;3.40;1.90;;;;;;;18.81;59.60;95242.61;106599;1275;24149;-75
2023/06/11 11:17:03;;;;;;;5.30;2.00;;;;;;;18.68;59.03;95243.51;106623;1264;25330;-74
2023/06/11 11:19:33;;;;;;;5.80;2.00;;;;;;;18.57;59.48;95240.40;106685;1275;22624;-74
2023/06/11 11:22:03;;;;;;;4.10;2.00;;;;;;;18.45;60.75;95240.15;106616;1275;22530;-75
2023/06/11 11:24:35;;;;;;;5.20;2.10;;;;;;;18.37;62.06;95237.41;106791;1275;24351;-75
2023/06/11 11:27:08;;;;;;;8.10;1.90;;;;;;;18.30;63.67;95232.27;106588;1275;22527;-74
2023/06/11 11:29:37;;;;;;;3.90;2.10;;;;;;;18.23;62.50;95231.92;106732;1275;24244;-74
2023/06/11 11:32:06;;;;;;;4.90;1.80;;;;;;;18.11;61.70;95231.86;106592;1275;22533;-75
2023/06/11 11:34:39;;;;;;;3.60;2.00;;;;;;;18.03;64.78;95239.78;106645;1275;25402;-74
2023/06/11 11:37:07;;;;;;;5.80;2.10;;;;;;;17.91;66.84;95245.37;106604;1275;24247;-74
2023/06/11 11:39:36;;;;;;;5.80;2.60;;;;;;;17.68;68.91;95257.23;106594;1275;24334;-74